Mize, Mississippi
Current Conditions -  °F | °C
As of 4:35 PM on Friday 31 Oct 2014 (Local Time) from KPIB Reporting Station
Few Clouds Few Clouds  
Wind Chill: 70°   Ceiling: Unl
Heat Index: 70°   Visibility: 10mi
Dew Point: 45°   Wind: 13mph
Humidity: 40%   Direction: 320°NW
Pressure: 30.03"   Gusts: 23mph
Location:  31.87°N, 89.56°W
Report Text: KPIB 312135Z AUTO 32011G20KT 10SM FEW050 21/07 A3003 RMK AO1
Loading
Personal Weather Stations






























Interactive Weather Map
Tropical Storm Tracking
New forecast layout! Learn more

10-Day Weather Forecast

Advertisements
Track Severe Weather on mobile